Time;durP1;ratioP1;P1;durP2;ratioP2;P2;SDS_P1;SDS_P2;PMS_P1;PMS_P2;Temp;Humidity;BMP_temperature;BMP_pressure;BME280_temperature;BME280_humidity;BME280_pressure;Samples;Min_cycle;Max_cycle;Signal;HPM_P1;HPM_P2
2021/08/23 00:00:58;;;;;;;4.03;2.10;;;17.80;82.40;;;;;;5070503;28;20455;-43
2021/08/23 00:03:25;;;;;;;2.03;1.70;;;17.80;82.50;;;;;;5068993;28;20469;-43
2021/08/23 00:05:52;;;;;;;2.27;2.00;;;17.80;82.50;;;;;;5072032;28;20563;-43
2021/08/23 00:08:19;;;;;;;2.80;2.17;;;17.80;82.50;;;;;;5072660;28;20454;-42
2021/08/23 00:10:46;;;;;;;1.70;1.60;;;17.80;82.60;;;;;;5056446;28;20834;-43
2021/08/23 00:13:12;;;;;;;1.80;1.67;;;17.80;82.70;;;;;;5073497;28;20441;-43
2021/08/23 00:15:40;;;;;;;5.83;2.60;;;17.80;82.80;;;;;;5050955;28;20815;-43
2021/08/23 00:18:07;;;;;;;2.53;2.20;;;17.70;83.00;;;;;;5053782;28;20606;-43
2021/08/23 00:20:43;;;;;;;2.33;1.80;;;17.70;83.10;;;;;;5065554;28;20470;-43
2021/08/23 00:23:12;;;;;;;3.13;1.87;;;17.70;83.20;;;;;;5074403;28;20547;-43
2021/08/23 00:25:40;;;;;;;2.40;2.00;;;17.60;83.20;;;;;;5059359;28;20986;-43
2021/08/23 00:28:08;;;;;;;2.20;1.90;;;17.60;83.30;;;;;;5069566;28;20981;-43
2021/08/23 00:30:36;;;;;;;2.20;1.90;;;17.60;83.40;;;;;;5056041;28;20488;-43
2021/08/23 00:33:03;;;;;;;1.97;1.80;;;17.50;83.40;;;;;;5055987;28;20469;-43
2021/08/23 00:35:30;;;;;;;1.90;1.80;;;17.50;83.50;;;;;;5059084;28;20899;-43
2021/08/23 00:38:01;;;;;;;2.73;1.90;;;17.50;83.60;;;;;;5069220;28;20454;-43
2021/08/23 00:40:28;;;;;;;3.60;2.40;;;17.50;83.70;;;;;;5069145;28;20587;-42
2021/08/23 00:42:55;;;;;;;2.57;2.30;;;17.50;83.70;;;;;;5082774;28;20456;-43
2021/08/23 00:45:22;;;;;;;3.63;2.23;;;17.40;83.80;;;;;;5074532;28;20978;-43
2021/08/23 00:47:49;;;;;;;5.30;2.60;;;17.40;83.90;;;;;;5071429;28;20835;-43
2021/08/23 00:50:18;;;;;;;2.43;2.10;;;17.40;84.00;;;;;;5068716;28;20492;-43
2021/08/23 00:52:45;;;;;;;4.13;2.90;;;17.40;84.00;;;;;;5069830;28;20459;-43
2021/08/23 00:55:12;;;;;;;3.90;3.20;;;17.30;84.00;;;;;;5066467;28;20452;-43
2021/08/23 00:57:42;;;;;;;3.73;3.43;;;17.30;84.00;;;;;;5070148;28;20457;-43
2021/08/23 01:00:11;;;;;;;3.17;2.97;;;17.30;84.00;;;;;;5069615;28;20446;-43
2021/08/23 01:02:42;;;;;;;2.50;2.30;;;17.30;84.10;;;;;;5058829;28;20457;-43
2021/08/23 01:05:18;;;;;;;3.30;2.80;;;17.20;84.30;;;;;;5060914;28;20544;-43
2021/08/23 01:07:48;;;;;;;3.60;2.60;;;17.20;84.40;;;;;;5072095;28;20808;-43
2021/08/23 01:10:20;;;;;;;4.10;3.50;;;17.20;84.50;;;;;;5071200;28;20479;-42
2021/08/23 01:12:47;;;;;;;3.73;2.40;;;17.20;84.50;;;;;;5066109;28;20457;-43
2021/08/23 01:15:14;;;;;;;2.03;1.83;;;17.20;84.60;;;;;;5061600;28;20486;-43
2021/08/23 01:17:40;;;;;;;4.37;2.30;;;17.20;84.70;;;;;;5063286;28;20799;-43
2021/08/23 01:20:08;;;;;;;2.40;2.03;;;17.20;84.70;;;;;;5055582;28;20459;-43
2021/08/23 01:22:44;;;;;;;5.50;2.10;;;17.20;84.70;;;;;;5053055;28;20465;-43
2021/08/23 01:25:15;;;;;;;2.53;2.17;;;17.20;84.70;;;;;;5068769;28;20465;-43
2021/08/23 01:28:06;;;;;;;2.60;1.70;;;17.20;84.70;;;;;;5065723;28;20450;-43
2021/08/23 01:30:59;;;;;;;2.23;2.03;;;17.20;84.70;;;;;;5064109;28;20485;-43
2021/08/23 01:33:26;;;;;;;2.77;1.87;;;17.20;84.70;;;;;;5063757;28;20971;-43
2021/08/23 01:35:54;;;;;;;3.23;2.17;;;17.20;84.70;;;;;;5070138;28;20451;-43
2021/08/23 01:38:21;;;;;;;2.17;1.80;;;17.20;84.50;;;;;;5067012;28;20820;-43
2021/08/23 01:41:01;;;;;;;2.43;2.10;;;17.20;84.50;;;;;;5069705;28;20938;-43
2021/08/23 01:43:28;;;;;;;2.20;1.93;;;17.20;84.50;;;;;;5062771;28;20454;-43
2021/08/23 01:45:55;;;;;;;6.70;2.33;;;17.20;84.40;;;;;;5065502;28;20449;-43
2021/08/23 01:48:25;;;;;;;2.90;2.50;;;17.20;84.50;;;;;;5069263;28;20472;-43
2021/08/23 01:50:52;;;;;;;2.87;2.13;;;17.10;84.60;;;;;;5067314;28;20968;-43
2021/08/23 01:53:19;;;;;;;2.50;1.70;;;17.10;84.70;;;;;;5068549;28;20989;-43
2021/08/23 01:55:46;;;;;;;4.07;2.50;;;17.10;84.80;;;;;;5065700;28;20464;-43
2021/08/23 01:58:15;;;;;;;2.20;2.00;;;17.10;84.90;;;;;;5064430;28;20435;-43
2021/08/23 02:00:41;;;;;;;3.40;2.07;;;17.10;85.00;;;;;;5071304;28;20476;-43
2021/08/23 02:03:09;;;;;;;2.20;2.00;;;17.10;85.00;;;;;;5070772;28;20496;-43
2021/08/23 02:05:35;;;;;;;3.43;2.40;;;17.10;85.10;;;;;;5059576;28;20453;-43
2021/08/23 02:08:02;;;;;;;3.60;1.87;;;17.10;85.20;;;;;;5069727;28;20464;-43
2021/08/23 02:10:29;;;;;;;7.60;2.03;;;17.10;85.30;;;;;;5056783;28;20521;-43
2021/08/23 02:12:56;;;;;;;3.43;2.00;;;17.10;85.40;;;;;;5058067;28;20926;-46
2021/08/23 02:15:22;;;;;;;5.20;1.87;;;17.10;85.50;;;;;;5055559;28;20819;-46
2021/08/23 02:17:49;;;;;;;3.20;1.87;;;17.10;85.50;;;;;;5072298;28;20452;-46
2021/08/23 02:20:17;;;;;;;2.90;2.60;;;17.10;85.50;;;;;;5066246;28;20513;-45
2021/08/23 02:22:44;;;;;;;3.13;2.40;;;17.20;85.60;;;;;;5068081;28;20941;-46
2021/08/23 02:25:11;;;;;;;3.90;2.13;;;17.20;85.60;;;;;;5066967;28;20467;-46
2021/08/23 02:27:37;;;;;;;4.23;2.00;;;17.20;85.60;;;;;;5034189;28;20448;-46
2021/08/23 02:30:05;;;;;;;3.17;2.40;;;17.20;85.70;;;;;;5069263;28;20481;-46
2021/08/23 02:32:33;;;;;;;2.20;1.67;;;17.20;85.70;;;;;;5057730;28;20460;-46
2021/08/23 02:35:00;;;;;;;3.90;2.77;;;17.20;85.70;;;;;;5081274;28;20458;-46
2021/08/23 02:37:27;;;;;;;2.67;2.47;;;17.20;85.70;;;;;;5072216;28;20457;-46
2021/08/23 02:39:54;;;;;;;2.47;2.23;;;17.20;85.70;;;;;;5079303;28;20453;-46
2021/08/23 02:42:20;;;;;;;3.70;2.70;;;17.20;85.60;;;;;;5065188;28;20492;-43
2021/08/23 02:44:47;;;;;;;2.37;1.80;;;17.20;85.60;;;;;;5053471;28;20452;-43
2021/08/23 02:47:14;;;;;;;2.63;2.43;;;17.20;85.50;;;;;;5060574;28;20532;-43
2021/08/23 02:49:41;;;;;;;3.87;2.60;;;17.20;85.40;;;;;;5051953;28;20491;-42
2021/08/23 02:52:08;;;;;;;2.60;2.27;;;17.20;85.40;;;;;;5050137;28;20465;-43
2021/08/23 02:54:34;;;;;;;4.87;2.07;;;17.20;85.50;;;;;;5062886;28;21117;-43
2021/08/23 02:57:01;;;;;;;2.33;2.13;;;17.20;85.50;;;;;;5051172;28;20460;-43
2021/08/23 02:59:28;;;;;;;3.37;2.37;;;17.20;85.50;;;;;;5067127;28;20830;-43
2021/08/23 03:01:54;;;;;;;3.60;2.33;;;17.20;85.60;;;;;;5072579;28;20456;-43
2021/08/23 03:04:21;;;;;;;2.63;2.27;;;17.20;85.60;;;;;;5065082;28;20837;-43
2021/08/23 03:06:48;;;;;;;3.50;1.97;;;17.20;85.60;;;;;;5070025;28;20456;-43
2021/08/23 03:09:15;;;;;;;1.93;1.83;;;17.20;85.70;;;;;;5071428;28;20823;-43
2021/08/23 03:11:41;;;;;;;3.57;2.57;;;17.20;85.70;;;;;;5071750;28;20978;-43
2021/08/23 03:14:08;;;;;;;7.67;2.80;;;17.20;85.80;;;;;;5043524;28;20447;-43
2021/08/23 03:16:35;;;;;;;2.80;2.50;;;17.20;85.80;;;;;;5036632;28;20448;-43
2021/08/23 03:19:02;;;;;;;2.93;2.63;;;17.20;85.80;;;;;;5054609;28;20802;-43
2021/08/23 03:21:28;;;;;;;2.60;2.40;;;17.20;85.90;;;;;;5067748;28;20483;-43
2021/08/23 03:23:55;;;;;;;5.33;2.57;;;17.20;85.90;;;;;;5070349;28;20476;-43
2021/08/23 03:26:22;;;;;;;3.33;2.40;;;17.20;85.90;;;;;;5071578;28;20454;-43
2021/08/23 03:28:49;;;;;;;6.00;2.33;;;17.20;85.90;;;;;;5073677;28;20448;-42
2021/08/23 03:31:15;;;;;;;5.17;3.10;;;17.20;85.90;;;;;;5072209;28;21205;-48
2021/08/23 03:33:42;;;;;;;3.50;2.37;;;17.20;85.90;;;;;;5055342;28;20946;-43
2021/08/23 03:36:09;;;;;;;3.30;3.00;;;17.20;85.90;;;;;;5072073;28;20453;-43
2021/08/23 03:38:37;;;;;;;5.67;2.57;;;17.20;85.90;;;;;;5065015;28;20795;-43
2021/08/23 03:41:04;;;;;;;4.70;2.37;;;17.20;85.90;;;;;;5071173;28;20455;-43
2021/08/23 03:43:31;;;;;;;3.30;2.80;;;17.20;85.90;;;;;;5070347;28;20449;-43
2021/08/23 03:45:58;;;;;;;4.27;2.80;;;17.30;85.90;;;;;;5071474;28;20454;-43
2021/08/23 03:48:24;;;;;;;3.27;2.97;;;17.30;85.90;;;;;;5069338;28;20945;-42
2021/08/23 03:50:51;;;;;;;2.60;2.40;;;17.30;86.00;;;;;;5072865;28;20559;-43
2021/08/23 03:53:18;;;;;;;3.33;2.40;;;17.30;86.00;;;;;;5070786;28;20462;-43
2021/08/23 03:55:45;;;;;;;2.77;2.57;;;17.30;86.00;;;;;;5071471;28;20450;-43
2021/08/23 03:58:11;;;;;;;3.40;2.77;;;17.30;86.00;;;;;;5060005;28;20484;-43
2021/08/23 04:00:38;;;;;;;5.37;2.50;;;17.30;85.90;;;;;;5070073;28;20449;-43
2021/08/23 04:03:05;;;;;;;13.17;3.57;;;17.40;85.90;;;;;;5068756;28;20505;-43
2021/08/23 04:05:32;;;;;;;3.03;2.60;;;17.40;85.80;;;;;;5054827;28;21052;-43
2021/08/23 04:07:59;;;;;;;4.53;2.37;;;17.40;85.60;;;;;;5059694;28;20798;-42
2021/08/23 04:10:26;;;;;;;6.70;1.90;;;17.40;85.60;;;;;;5068334;28;20534;-43
2021/08/23 04:12:52;;;;;;;3.80;2.37;;;17.40;85.70;;;;;;5073617;28;20451;-43
2021/08/23 04:15:19;;;;;;;3.37;2.47;;;17.30;85.70;;;;;;5057398;28;20445;-43
2021/08/23 04:17:46;;;;;;;3.30;2.13;;;17.30;85.70;;;;;;5074398;28;20445;-43
2021/08/23 04:20:13;;;;;;;3.30;2.90;;;17.30;85.70;;;;;;5073084;28;20482;-43
2021/08/23 04:22:40;;;;;;;4.03;2.87;;;17.30;85.70;;;;;;5042431;28;20461;-43
2021/08/23 04:25:08;;;;;;;3.30;3.00;;;17.30;85.70;;;;;;5062149;28;20461;-43
2021/08/23 04:27:34;;;;;;;6.50;2.53;;;17.30;85.70;;;;;;5072676;28;20968;-43
2021/08/23 04:30:04;;;;;;;5.47;3.37;;;17.30;85.70;;;;;;5073022;28;20515;-43
2021/08/23 04:32:31;;;;;;;5.30;2.93;;;17.30;85.70;;;;;;5053410;28;20462;-43
2021/08/23 04:34:57;;;;;;;5.63;2.67;;;17.30;85.70;;;;;;5070570;28;20442;-43
2021/08/23 04:37:26;;;;;;;3.67;2.57;;;17.30;85.80;;;;;;5047587;28;20461;-42
2021/08/23 04:39:53;;;;;;;2.80;2.60;;;17.30;85.80;;;;;;5059810;28;20446;-43
2021/08/23 04:42:20;;;;;;;3.60;3.30;;;17.30;85.80;;;;;;5074330;28;20461;-42
2021/08/23 04:44:49;;;;;;;4.87;2.50;;;17.30;85.80;;;;;;5062367;28;20455;-43
2021/08/23 04:47:16;;;;;;;3.57;3.27;;;17.30;85.80;;;;;;5062807;28;20540;-43
2021/08/23 04:49:43;;;;;;;3.37;2.50;;;17.30;85.80;;;;;;5072379;28;20850;-43
2021/08/23 04:52:10;;;;;;;3.30;2.73;;;17.30;85.90;;;;;;5066732;28;20461;-43
2021/08/23 04:54:36;;;;;;;3.33;2.40;;;17.30;85.90;;;;;;5074140;28;20448;-43
2021/08/23 04:57:03;;;;;;;3.33;2.53;;;17.30;85.80;;;;;;5069726;28;20913;-43
2021/08/23 04:59:30;;;;;;;3.17;2.47;;;17.30;85.90;;;;;;5067371;28;20451;-43
2021/08/23 05:01:57;;;;;;;3.90;2.80;;;17.30;85.90;;;;;;5058423;28;20458;-43
2021/08/23 05:04:24;;;;;;;6.87;2.90;;;17.30;86.00;;;;;;5068284;28;21005;-43
2021/08/23 05:06:53;;;;;;;3.17;2.77;;;17.30;86.00;;;;;;5059773;28;21171;-43
2021/08/23 05:09:20;;;;;;;3.17;2.87;;;17.30;86.10;;;;;;5032344;28;20942;-43
2021/08/23 05:11:47;;;;;;;5.50;3.77;;;17.30;86.10;;;;;;5058452;28;20496;-43
2021/08/23 05:14:14;;;;;;;3.20;2.90;;;17.30;86.10;;;;;;5069469;28;20909;-43
2021/08/23 05:16:40;;;;;;;3.03;2.70;;;17.30;86.20;;;;;;5068152;28;20452;-42
2021/08/23 05:19:07;;;;;;;5.57;3.10;;;17.30;86.20;;;;;;5052707;28;20457;-43
2021/08/23 05:21:34;;;;;;;3.67;3.23;;;17.30;86.20;;;;;;5065998;28;20466;-42
2021/08/23 05:24:01;;;;;;;3.60;3.10;;;17.30;86.30;;;;;;5071286;28;20465;-43
2021/08/23 05:26:27;;;;;;;5.40;3.80;;;17.30;86.30;;;;;;5059274;28;20468;-43
2021/08/23 05:28:54;;;;;;;4.50;3.53;;;17.30;86.40;;;;;;5048008;28;21011;-43
2021/08/23 05:31:22;;;;;;;3.90;2.80;;;17.30;86.40;;;;;;5048004;28;20492;-43
2021/08/23 05:33:52;;;;;;;4.00;3.60;;;17.30;86.50;;;;;;5075426;28;20965;-43
2021/08/23 05:36:19;;;;;;;3.20;2.87;;;17.30;86.50;;;;;;5066939;28;21372;-43
2021/08/23 05:38:46;;;;;;;3.90;3.50;;;17.30;86.60;;;;;;5057259;28;20445;-43
2021/08/23 05:41:13;;;;;;;3.93;3.30;;;17.30;86.60;;;;;;5039664;28;20462;-43
2021/08/23 05:43:40;;;;;;;3.20;2.80;;;17.30;86.70;;;;;;5048612;28;20462;-43
2021/08/23 05:46:07;;;;;;;4.20;3.00;;;17.30;86.80;;;;;;5053817;28;20457;-43
2021/08/23 05:48:33;;;;;;;6.23;3.70;;;17.40;86.90;;;;;;5064753;28;20465;-42
2021/08/23 05:51:02;;;;;;;2.97;2.67;;;17.40;86.90;;;;;;5062698;28;20474;-43
2021/08/23 05:53:29;;;;;;;11.17;2.77;;;17.40;86.90;;;;;;5064690;28;21120;-43
2021/08/23 05:55:55;;;;;;;3.87;3.13;;;17.50;86.90;;;;;;5055622;28;20456;-43
2021/08/23 05:58:24;;;;;;;3.27;2.97;;;17.50;86.60;;;;;;5065622;28;20566;-43
2021/08/23 06:00:51;;;;;;;3.80;3.00;;;17.60;86.40;;;;;;5076626;28;20462;-43
2021/08/23 06:03:18;;;;;;;5.27;3.23;;;17.60;86.40;;;;;;5057128;28;21214;-43
2021/08/23 06:05:45;;;;;;;6.43;3.33;;;17.60;86.30;;;;;;5063883;28;20573;-43
2021/08/23 06:08:11;;;;;;;3.63;3.33;;;17.70;86.20;;;;;;5084951;28;20453;-43
2021/08/23 06:10:38;;;;;;;3.47;3.17;;;17.70;86.00;;;;;;5061789;28;20490;-43
2021/08/23 06:13:05;;;;;;;6.80;3.33;;;17.80;85.90;;;;;;5054847;28;20819;-43
2021/08/23 06:15:32;;;;;;;4.27;3.37;;;17.80;85.70;;;;;;5042678;28;20494;-43
2021/08/23 06:17:59;;;;;;;4.13;3.33;;;17.90;84.90;;;;;;5056517;28;20942;-43
2021/08/23 06:20:25;;;;;;;3.40;3.10;;;17.90;84.90;;;;;;5044862;28;20483;-43
2021/08/23 06:22:55;;;;;;;3.53;3.23;;;17.90;85.00;;;;;;5063936;28;22132;-43
2021/08/23 06:25:23;;;;;;;3.70;3.30;;;18.00;85.00;;;;;;5045753;28;20491;-43
2021/08/23 06:27:50;;;;;;;5.87;3.77;;;18.00;85.10;;;;;;5050297;28;20459;-43
2021/08/23 06:30:17;;;;;;;3.70;3.40;;;18.00;85.00;;;;;;5053172;28;20484;-43
2021/08/23 06:32:44;;;;;;;7.00;3.90;;;18.10;84.70;;;;;;5071204;28;20442;-43
2021/08/23 06:35:14;;;;;;;4.77;4.27;;;18.10;84.70;;;;;;5054589;28;20933;-43
2021/08/23 06:37:41;;;;;;;4.27;3.33;;;18.10;84.90;;;;;;5071333;28;20444;-43
2021/08/23 06:40:09;;;;;;;3.90;3.10;;;18.10;84.90;;;;;;5059054;28;20539;-43
2021/08/23 06:42:39;;;;;;;3.50;2.90;;;18.10;84.60;;;;;;5066537;28;20465;-43
2021/08/23 06:45:07;;;;;;;4.17;2.90;;;18.20;84.30;;;;;;5048193;28;20455;-43
2021/08/23 06:47:34;;;;;;;4.10;2.90;;;18.20;84.40;;;;;;5050367;28;20464;-43
2021/08/23 06:50:02;;;;;;;4.37;2.57;;;18.30;84.30;;;;;;5026780;28;20935;-43
2021/08/23 06:52:28;;;;;;;4.37;2.80;;;18.30;84.20;;;;;;5062458;28;20469;-43
2021/08/23 06:54:55;;;;;;;2.80;2.60;;;18.40;84.30;;;;;;5070360;28;20452;-43
2021/08/23 06:57:22;;;;;;;3.60;2.93;;;18.40;84.20;;;;;;5065855;28;20446;-43
2021/08/23 06:59:49;;;;;;;3.27;2.87;;;18.50;83.90;;;;;;5060178;28;20441;-43
2021/08/23 07:02:15;;;;;;;2.93;2.70;;;18.60;83.70;;;;;;5071081;28;20468;-43
2021/08/23 07:04:49;;;;;;;3.30;2.97;;;18.70;83.60;;;;;;5056051;28;20453;-43
2021/08/23 07:07:19;;;;;;;3.87;3.23;;;18.80;83.40;;;;;;5054262;28;20450;-43
2021/08/23 07:09:45;;;;;;;7.40;3.27;;;18.90;83.10;;;;;;5071898;28;20453;-43
2021/08/23 07:12:12;;;;;;;6.90;3.40;;;19.00;82.70;;;;;;5058677;28;20489;-43
2021/08/23 07:14:40;;;;;;;4.20;2.90;;;19.10;82.40;;;;;;5075195;28;20444;-43
2021/08/23 07:17:10;;;;;;;3.33;3.03;;;19.30;81.60;;;;;;5060716;28;20516;-43
2021/08/23 07:19:37;;;;;;;4.57;2.83;;;19.40;81.10;;;;;;5087326;28;20549;-43
2021/08/23 07:22:20;;;;;;;3.20;2.47;;;19.50;80.00;;;;;;5074991;28;20537;-43
2021/08/23 07:24:47;;;;;;;4.10;2.70;;;19.60;79.00;;;;;;5073402;28;20557;-43
2021/08/23 07:27:14;;;;;;;4.27;3.10;;;19.70;78.70;;;;;;5064342;28;20809;-43
2021/08/23 07:29:41;;;;;;;3.40;3.10;;;19.80;78.70;;;;;;5073783;28;20454;-43
2021/08/23 07:32:08;;;;;;;3.63;3.10;;;19.90;77.20;;;;;;5071262;28;20486;-43
2021/08/23 07:34:35;;;;;;;3.80;2.87;;;20.00;76.90;;;;;;5054526;28;20449;-43
2021/08/23 07:37:02;;;;;;;4.30;3.43;;;20.10;76.50;;;;;;5058129;28;20464;-43
2021/08/23 07:39:29;;;;;;;3.03;2.47;;;20.20;76.20;;;;;;5066892;28;20453;-43
2021/08/23 07:41:56;;;;;;;3.40;2.60;;;20.30;75.90;;;;;;5063044;28;20978;-43
2021/08/23 07:44:22;;;;;;;3.03;2.77;;;20.50;75.40;;;;;;5066064;28;20507;-43
2021/08/23 07:46:49;;;;;;;2.83;2.53;;;20.60;74.60;;;;;;5072112;28;20954;-43
2021/08/23 07:49:16;;;;;;;2.80;2.60;;;20.80;74.40;;;;;;5071168;28;20465;-43
2021/08/23 07:51:43;;;;;;;4.73;3.27;;;20.90;73.60;;;;;;5071172;28;20480;-43
2021/08/23 07:54:09;;;;;;;2.90;2.70;;;21.10;73.10;;;;;;5072453;28;20441;-43
2021/08/23 07:56:36;;;;;;;4.20;3.10;;;21.20;73.00;;;;;;5069932;28;20810;-43
2021/08/23 07:59:03;;;;;;;3.63;3.33;;;21.40;73.40;;;;;;5054859;28;20799;-43
2021/08/23 08:01:30;;;;;;;3.77;3.33;;;21.50;72.40;;;;;;5068229;28;20792;-43
2021/08/23 08:03:57;;;;;;;5.03;2.93;;;21.60;71.70;;;;;;5072916;28;20484;-43
2021/08/23 08:06:23;;;;;;;3.13;2.83;;;21.80;71.60;;;;;;5067589;28;20473;-43
2021/08/23 08:08:50;;;;;;;3.57;3.27;;;21.90;71.10;;;;;;5054481;28;20460;-43
2021/08/23 08:11:17;;;;;;;3.73;3.43;;;22.00;70.60;;;;;;5065125;28;20494;-43
2021/08/23 08:13:44;;;;;;;3.80;3.33;;;22.10;70.40;;;;;;5073385;28;20445;-43
2021/08/23 08:16:10;;;;;;;4.53;3.27;;;22.30;69.60;;;;;;5050405;28;20828;-43
2021/08/23 08:18:37;;;;;;;5.70;3.13;;;22.40;69.00;;;;;;5067147;28;20447;-43
2021/08/23 08:21:05;;;;;;;4.10;3.53;;;22.60;68.30;;;;;;5065621;28;20477;-43
2021/08/23 08:23:32;;;;;;;4.27;3.07;;;22.80;68.00;;;;;;5070966;28;20465;-43
2021/08/23 08:25:59;;;;;;;5.63;3.83;;;22.90;67.90;;;;;;5037161;28;20455;-43
2021/08/23 08:28:26;;;;;;;5.07;3.57;;;23.10;67.10;;;;;;5050547;28;20464;-43
2021/08/23 08:30:52;;;;;;;4.40;3.40;;;23.10;66.70;;;;;;5058004;28;20493;-43
2021/08/23 08:33:19;;;;;;;3.70;3.40;;;23.20;65.90;;;;;;5057017;28;20452;-43
2021/08/23 08:35:46;;;;;;;3.90;3.60;;;23.30;65.90;;;;;;5056822;28;20451;-43
2021/08/23 08:38:13;;;;;;;3.70;3.40;;;23.40;65.70;;;;;;5070313;28;20442;-43
2021/08/23 08:40:39;;;;;;;4.13;3.63;;;23.50;66.20;;;;;;5067475;28;20446;-43
2021/08/23 08:43:06;;;;;;;5.57;4.20;;;23.60;65.80;;;;;;5069183;28;20445;-44
2021/08/23 08:45:33;;;;;;;5.40;4.37;;;23.80;64.80;;;;;;5064279;28;20452;-43
2021/08/23 08:48:03;;;;;;;4.73;3.80;;;24.10;64.40;;;;;;5071723;28;20931;-43
2021/08/23 08:50:30;;;;;;;4.80;3.70;;;24.20;63.70;;;;;;5069131;28;20802;-43
2021/08/23 08:52:57;;;;;;;6.07;4.00;;;24.40;63.20;;;;;;5074573;28;21115;-44
2021/08/23 08:55:24;;;;;;;6.23;4.27;;;24.50;62.80;;;;;;5073958;28;20452;-43
2021/08/23 08:57:52;;;;;;;4.33;3.77;;;24.80;62.00;;;;;;5062530;28;20454;-44
2021/08/23 09:00:20;;;;;;;6.57;3.50;;;25.00;60.60;;;;;;5069480;28;20547;-43
2021/08/23 09:02:55;;;;;;;4.40;3.63;;;25.20;60.20;;;;;;5069882;28;20463;-43
2021/08/23 09:05:22;;;;;;;7.93;4.30;;;25.30;59.50;;;;;;5059855;28;20476;-43
2021/08/23 09:07:50;;;;;;;5.00;4.50;;;25.40;59.30;;;;;;5059349;28;20547;-43
2021/08/23 09:10:19;;;;;;;4.77;4.37;;;25.40;59.60;;;;;;5069686;28;20449;-43
2021/08/23 09:12:46;;;;;;;4.23;3.83;;;25.30;59.60;;;;;;5067324;28;20588;-43
2021/08/23 09:15:12;;;;;;;4.33;3.93;;;25.20;59.60;;;;;;5038495;28;20449;-44
2021/08/23 09:17:39;;;;;;;5.60;4.63;;;25.50;59.20;;;;;;5070117;28;20476;-43
2021/08/23 09:20:07;;;;;;;4.90;4.00;;;25.70;58.80;;;;;;5066008;28;20992;-43
2021/08/23 09:22:33;;;;;;;5.00;4.00;;;25.80;58.30;;;;;;5059472;28;20457;-43
2021/08/23 09:25:12;;;;;;;4.83;3.80;;;25.90;57.80;;;;;;5038042;28;20456;-43
2021/08/23 09:27:39;;;;;;;4.53;4.07;;;25.80;57.80;;;;;;5068346;28;20486;-43
2021/08/23 09:30:07;;;;;;;5.17;3.87;;;25.50;58.00;;;;;;5068096;28;20459;-43
2021/08/23 09:32:48;;;;;;;6.50;4.60;;;25.20;58.50;;;;;;5069156;28;20476;-43
2021/08/23 09:35:36;;;;;;;3.90;3.50;;;24.90;59.60;;;;;;5058568;28;20449;-43
2021/08/23 09:38:08;;;;;;;4.90;4.40;;;24.50;60.70;;;;;;5071918;28;21399;-43
2021/08/23 09:40:35;;;;;;;8.87;4.83;;;24.20;61.60;;;;;;5067679;28;20445;-43
2021/08/23 09:43:13;;;;;;;5.60;4.60;;;23.90;62.30;;;;;;5052813;28;20549;-43
2021/08/23 09:45:47;;;;;;;4.53;4.00;;;23.60;63.00;;;;;;5067617;28;20785;-43
2021/08/23 09:48:15;;;;;;;6.60;5.20;;;23.40;63.80;;;;;;5051035;28;20449;-43
2021/08/23 09:50:51;;;;;;;6.83;4.63;;;23.10;64.10;;;;;;5066085;28;20449;-43
2021/08/23 09:53:21;;;;;;;5.00;4.60;;;22.90;64.60;;;;;;5065555;28;20813;-43
2021/08/23 09:55:50;;;;;;;5.47;4.97;;;22.70;65.30;;;;;;5068828;28;20449;-43
2021/08/23 09:58:17;;;;;;;5.93;4.77;;;22.50;65.80;;;;;;5066604;28;20485;-43
2021/08/23 10:00:44;;;;;;;7.37;5.40;;;22.40;65.90;;;;;;5070702;28;20449;-43
2021/08/23 10:03:17;;;;;;;5.70;4.80;;;22.30;66.20;;;;;;5082732;28;20443;-43
2021/08/23 10:05:49;;;;;;;4.97;4.47;;;22.10;67.10;;;;;;5045995;28;20461;-43
2021/08/23 10:08:19;;;;;;;6.20;5.37;;;22.10;68.40;;;;;;5056600;28;20976;-43
2021/08/23 10:10:46;;;;;;;7.30;5.50;;;21.90;68.90;;;;;;5031155;28;20447;-43
2021/08/23 10:13:14;;;;;;;5.53;5.03;;;21.80;69.60;;;;;;5046335;28;21058;-43
2021/08/23 10:15:41;;;;;;;6.13;5.33;;;21.70;70.00;;;;;;5068372;28;20556;-43
2021/08/23 10:18:08;;;;;;;6.33;5.70;;;21.50;70.50;;;;;;5066502;28;20452;-43
2021/08/23 10:20:36;;;;;;;6.50;5.90;;;21.50;71.30;;;;;;5057997;28;20474;-43
2021/08/23 10:23:04;;;;;;;5.70;5.10;;;21.40;71.80;;;;;;5068452;28;20450;-43
2021/08/23 10:25:31;;;;;;;6.40;5.80;;;21.40;71.50;;;;;;5064312;28;20461;-43
2021/08/23 10:28:12;;;;;;;5.90;5.40;;;21.40;71.90;;;;;;5068043;28;20453;-43
2021/08/23 10:30:42;;;;;;;5.97;5.40;;;21.40;71.90;;;;;;5054051;28;20473;-43
2021/08/23 10:33:17;;;;;;;7.17;6.27;;;21.40;71.90;;;;;;5071559;28;20576;-43
2021/08/23 10:35:57;;;;;;;7.07;6.37;;;21.50;71.80;;;;;;5067478;28;20447;-43
2021/08/23 10:38:25;;;;;;;8.30;6.70;;;21.60;71.40;;;;;;5049545;28;20440;-43
2021/08/23 10:41:16;;;;;;;7.37;5.87;;;21.60;71.00;;;;;;5064902;28;20450;-43
2021/08/23 10:43:57;;;;;;;8.23;6.23;;;21.70;70.80;;;;;;5064733;28;20460;-43
2021/08/23 10:46:31;;;;;;;7.53;6.10;;;21.90;69.60;;;;;;5065807;28;20465;-43
2021/08/23 10:49:03;;;;;;;6.07;5.47;;;22.10;69.30;;;;;;5063858;28;20455;-43
2021/08/23 10:51:36;;;;;;;6.40;5.80;;;22.20;68.50;;;;;;5051962;28;20986;-43
2021/08/23 10:54:23;;;;;;;6.77;6.07;;;22.30;68.40;;;;;;5069941;28;20457;-43
2021/08/23 10:56:59;;;;;;;7.07;6.37;;;22.50;68.00;;;;;;5068841;28;20461;-44
2021/08/23 10:59:37;;;;;;;6.57;5.97;;;22.70;67.50;;;;;;5068156;28;20548;-43
2021/08/23 11:02:04;;;;;;;9.33;6.80;;;22.80;67.30;;;;;;5069178;28;20472;-43
2021/08/23 11:04:37;;;;;;;6.87;6.17;;;22.90;67.10;;;;;;5067032;28;20457;-43
2021/08/23 11:07:06;;;;;;;9.37;7.03;;;23.00;66.90;;;;;;5063933;28;20943;-43
2021/08/23 11:09:43;;;;;;;7.00;6.30;;;23.10;66.00;;;;;;5068334;28;21156;-43
2021/08/23 11:12:13;;;;;;;6.47;5.87;;;23.30;65.70;;;;;;5068672;28;20477;-43
2021/08/23 11:14:48;;;;;;;5.73;4.93;;;23.50;65.10;;;;;;5066295;28;20448;-43
2021/08/23 11:17:32;;;;;;;6.60;6.00;;;23.50;64.00;;;;;;5046505;28;20435;-43
2021/08/23 11:20:03;;;;;;;7.30;6.50;;;23.50;63.50;;;;;;5069446;28;20453;-43
2021/08/23 11:22:30;;;;;;;6.70;5.87;;;23.50;63.30;;;;;;5065736;28;20475;-43
2021/08/23 11:24:57;;;;;;;6.37;5.80;;;23.50;63.40;;;;;;5070524;28;20469;-43
2021/08/23 11:27:24;;;;;;;7.13;6.30;;;23.50;63.70;;;;;;5055692;28;20445;-43
2021/08/23 11:29:53;;;;;;;6.93;5.93;;;23.50;64.30;;;;;;5053233;28;20464;-43
2021/08/23 11:32:29;;;;;;;6.30;5.60;;;23.40;64.10;;;;;;5069621;28;20486;-44
2021/08/23 11:35:00;;;;;;;8.20;6.37;;;23.40;64.60;;;;;;5049281;28;20457;-43
2021/08/23 11:37:28;;;;;;;7.10;6.40;;;23.40;64.60;;;;;;5050818;28;20453;-43
2021/08/23 11:40:09;;;;;;;6.63;6.07;;;23.30;64.50;;;;;;5066712;28;20449;-43
2021/08/23 11:42:36;;;;;;;9.30;6.67;;;23.30;64.20;;;;;;5063713;28;20773;-43
2021/08/23 11:45:27;;;;;;;6.50;5.90;;;23.30;63.80;;;;;;5072475;28;20480;-43
2021/08/23 11:47:54;;;;;;;6.80;6.10;;;23.40;64.10;;;;;;5066378;28;20999;-43
2021/08/23 11:50:23;;;;;;;7.77;6.40;;;23.40;64.00;;;;;;5068338;28;20946;-43
2021/08/23 11:52:50;;;;;;;6.07;5.47;;;23.40;63.00;;;;;;5070185;28;20904;-43
2021/08/23 11:55:30;;;;;;;6.43;5.83;;;23.50;61.80;;;;;;5047016;28;20466;-43
2021/08/23 11:58:09;;;;;;;6.20;5.60;;;23.50;62.10;;;;;;5053031;28;20506;-43
2021/08/23 12:00:39;;;;;;;6.03;5.20;;;23.70;60.60;;;;;;5068284;28;20790;-43
2021/08/23 12:03:12;;;;;;;6.30;5.70;;;23.80;60.50;;;;;;5069027;28;20504;-43
2021/08/23 12:05:44;;;;;;;5.63;5.13;;;23.90;59.80;;;;;;5063283;28;20451;-43
2021/08/23 12:08:32;;;;;;;7.00;6.33;;;23.90;60.90;;;;;;5064739;28;20842;-43
2021/08/23 12:11:01;;;;;;;6.00;5.40;;;24.00;60.60;;;;;;5078013;28;20453;-43
2021/08/23 12:13:38;;;;;;;7.20;5.13;;;24.00;60.90;;;;;;5057331;28;20972;-42
2021/08/23 12:16:08;;;;;;;6.47;5.40;;;23.90;60.80;;;;;;5063892;28;20555;-43
2021/08/23 12:18:41;;;;;;;6.03;5.43;;;23.80;60.60;;;;;;5055873;28;20565;-43
2021/08/23 12:21:17;;;;;;;7.60;6.10;;;23.70;60.80;;;;;;5066660;28;20483;-43
2021/08/23 12:23:57;;;;;;;5.90;5.27;;;23.60;61.50;;;;;;5051551;28;20453;-43
2021/08/23 12:26:30;;;;;;;6.40;5.80;;;23.40;62.10;;;;;;5068418;28;20852;-43
2021/08/23 12:29:01;;;;;;;5.77;5.27;;;23.40;62.50;;;;;;5050288;28;20437;-43
2021/08/23 12:31:30;;;;;;;5.20;4.70;;;23.20;63.20;;;;;;5064700;28;20487;-43
2021/08/23 12:34:10;;;;;;;7.00;6.10;;;23.20;63.90;;;;;;5065196;28;20470;-43
2021/08/23 12:36:37;;;;;;;5.60;5.00;;;23.10;63.10;;;;;;5066134;28;20445;-43
2021/08/23 12:39:03;;;;;;;7.70;5.43;;;23.00;63.20;;;;;;5068263;28;20961;-43
2021/08/23 12:41:30;;;;;;;6.50;5.87;;;23.00;63.40;;;;;;5062641;28;20487;-43
2021/08/23 12:43:58;;;;;;;6.07;5.47;;;22.90;63.90;;;;;;5066849;28;20947;-42
2021/08/23 12:46:26;;;;;;;5.70;5.20;;;22.90;64.10;;;;;;5069084;28;20469;-43
2021/08/23 12:48:53;;;;;;;4.97;4.57;;;22.90;64.50;;;;;;5065078;28;20449;-42
2021/08/23 12:51:20;;;;;;;6.43;5.57;;;22.90;64.30;;;;;;5068377;28;20445;-43
2021/08/23 12:53:48;;;;;;;5.20;4.70;;;22.80;64.30;;;;;;5067967;28;20478;-43
2021/08/23 12:56:17;;;;;;;7.60;5.57;;;22.80;63.90;;;;;;5064625;28;20449;-43